Bei Facebook empfehlenBei Twitter postenGoogle plusPinterest

Das Wetter im Erzgebirge am 19.09.2015

Wetter und Klima am 19.09.2015 Holzhau im Erzgebirge (630m ü.NN)
Letzte gemessene Temperatur und Uhrzeit der Messung23:45:00 Uhr7.80 °C
Temperatur (Maximum / Höchstwert) und Uhrzeit der Messung16:30:00 Uhr19.40 °C
Temperatur (Minimum / Tiefstwert) und Uhrzeit der Messung07:15:006.80 °C
Errechneter Absolutwert der Temperaturschwankungen zwischen Tmin und Tmax des Tages12.60 K
Errechnete Tagesmitteltemperatur12.16042 °C
Gesamt - Niederschlag des Tages (in flüssiger Form)2.07 Liter / m²
Luftdruck (Maximum / Höchstwert) und Zeitpunkt der Messung11:15:00 Uhr1018.00 hPa
Luftdruck (Minimum / Tiefstwert) und Zeitpunkt der Messung18:00:00 Uhr1016.70 hPa
Errechneter Absolutwert der Luftdruckschwankungen des Tages1.30 hPa
Höchste gemessene Windgeschwindigkeit und Uhrzeit der Messung10:30:00 Uhr4.68 km/h
Errechnete Windhäufigkeit in Relation zu den Messwerten des Tages6.25000 %
Niedrigste Windkühle (Windchill) und Zeitpunkt der Messung07:15:00 Uhr6.80 °C
Taupunkt (Maximum / Höchstwert) und Uhrzeit der Messung10:15:00 Uhr14.80 °C
Taupunkt (Minimum / Tiefstwert) und Uhrzeit der Messung07:15:005.70 °C
Anzahl der automatisch eingelesenen Messwerte 96

Detaillierte Wetter- und Klima- Messwerte für den 19.09.2015 in Holzhau im Erzgebirge (630m ü.NN)
ZeitTemperaturLuftdruckRel. LuftfeuchteWindWindrichtungWindchillTaupunktNiederschlag l/m²
23:45:007.80 °C1017.80 hPa90.00 %6.30 °C2.07
23:30:008.10 °C1017.70 hPa90.00 %6.60 °C1.56
23:15:008.30 °C1017.70 hPa90.00 %6.80 °C1.56
23:00:008.40 °C1017.80 hPa89.00 %6.70 °C1.56
22:45:008.60 °C1017.60 hPa89.00 %6.90 °C1.56
22:30:009.00 °C1017.60 hPa88.00 %7.10 °C1.56
22:15:009.70 °C1017.70 hPa88.00 %7.80 °C1.56
22:00:009.90 °C1017.60 hPa88.00 %8.00 °C1.56
21:45:0010.10 °C1017.70 hPa88.00 %8.20 °C1.56
21:30:0010.20 °C1017.60 hPa88.00 %8.30 °C1.56
21:15:0010.50 °C1017.70 hPa87.00 %8.40 °C1.56
21:00:0010.50 °C1017.70 hPa86.00 %8.30 °C1.56
20:45:0010.60 °C1017.70 hPa86.00 %8.40 °C1.56
20:30:0010.80 °C1017.80 hPa85.00 %8.40 °C1.56
20:15:0011.10 °C1017.70 hPa84.00 %8.50 °C1.56
20:00:0011.40 °C1017.90 hPa83.00 %8.60 °C1.04
19:45:0011.80 °C1017.90 hPa82.00 %8.80 °C 
19:30:0012.10 °C1017.70 hPa80.00 %8.80 °C 
19:15:0012.30 °C1017.60 hPa79.00 %8.80 °C 
19:00:0012.70 °C1017.60 hPa78.00 %9.00 °C 
18:45:0013.50 °C1017.30 hPa76.00 %9.40 °C 
18:30:0014.70 °C1017.30 hPa74.00 %10.10 °C 
18:15:0016.10 °C1017.00 hPa73.00 %11.30 °C 
18:00:0016.30 °C1016.70 hPa73.00 %11.50 °C 
17:45:0016.30 °C1016.70 hPa71.00 %11.00 °C 
17:30:0016.90 °C1016.70 hPa69.00 %11.20 °C 
17:15:0017.80 °C1016.70 hPa67.00 %11.60 °C 
17:00:0018.30 °C1016.90 hPa63.00 %11.10 °C 
16:45:0018.90 °C1016.80 hPa63.00 %11.70 °C 
16:30:0019.40 °C1016.80 hPa62.00 %11.90 °C 
16:15:0018.60 °C1016.80 hPa66.00 %12.10 °C 
16:00:0018.20 °C1016.90 hPa66.00 %11.70 °C 
15:45:0018.20 °C1017.00 hPa67.00 %12.00 °C 
15:30:0017.50 °C1017.00 hPa68.00 %11.50 °C 
15:15:0017.60 °C1017.20 hPa68.00 %11.60 °C 
15:00:0017.50 °C1017.10 hPa67.00 %11.30 °C 
14:45:0017.30 °C1017.40 hPa65.00 %10.70 °C 
14:30:0017.60 °C1017.50 hPa65.00 %10.90 °C 
14:15:0017.30 °C1017.50 hPa65.00 %10.70 °C 
14:00:0017.50 °C1017.70 hPa64.00 %10.60 °C 
13:45:0017.90 °C1017.70 hPa64.00 %11.00 °C 
13:30:0018.50 °C1017.70 hPa65.00 %2.16 km/hSSW18.50 °C11.80 °C 
13:15:0018.10 °C1017.70 hPa67.00 %11.90 °C 
13:00:0017.20 °C1017.70 hPa68.00 %11.20 °C 
12:45:0017.20 °C1017.90 hPa65.00 %10.60 °C 
12:30:0017.90 °C1017.90 hPa64.00 %3.96 km/hSW17.90 °C11.00 °C 
12:15:0018.10 °C1017.80 hPa63.00 %11.00 °C 
12:00:0018.50 °C1017.90 hPa63.00 %11.30 °C 
11:45:0018.80 °C1017.70 hPa67.00 %12.50 °C 
11:30:0018.30 °C1017.80 hPa70.00 %12.70 °C 
11:15:0017.80 °C1018.00 hPa75.00 %13.30 °C 
11:00:0016.90 °C1017.90 hPa79.00 %13.20 °C 
10:45:0016.70 °C1017.90 hPa84.00 %2.88 km/hWSW16.70 °C14.00 °C 
10:30:0016.10 °C1017.90 hPa89.00 %4.68 km/hSW16.10 °C14.30 °C 
10:15:0015.90 °C1017.90 hPa93.00 %14.80 °C 
10:00:0014.90 °C1017.90 hPa94.00 %2.52 km/hSSW14.90 °C13.90 °C 
09:45:0013.90 °C1017.80 hPa95.00 %13.10 °C 
09:30:0012.70 °C1017.80 hPa95.00 %11.90 °C 
09:15:0011.40 °C1018.00 hPa95.00 %10.60 °C 
09:00:0010.20 °C1018.00 hPa95.00 %9.40 °C 
08:45:009.20 °C1018.00 hPa94.00 %8.30 °C 
08:30:008.20 °C1017.90 hPa94.00 %7.30 °C 
08:15:007.40 °C1017.80 hPa94.00 %6.50 °C 
08:00:007.10 °C1017.70 hPa94.00 %6.20 °C 
07:45:007.30 °C1017.80 hPa94.00 %6.40 °C 
07:30:007.20 °C1017.70 hPa94.00 %6.30 °C 
07:15:006.80 °C1017.70 hPa93.00 %2.16 km/hOSO6.80 °C5.70 °C 
07:00:006.90 °C1017.60 hPa93.00 %5.80 °C 
06:45:007.20 °C1017.70 hPa93.00 %6.10 °C 
06:30:007.10 °C1017.70 hPa93.00 %6.00 °C 
06:15:007.00 °C1017.70 hPa93.00 %5.90 °C 
06:00:007.10 °C1017.60 hPa93.00 %6.00 °C 
05:45:007.30 °C1017.60 hPa93.00 %6.20 °C 
05:30:007.60 °C1017.50 hPa93.00 %6.50 °C 
05:15:007.80 °C1017.30 hPa93.00 %6.70 °C 
05:00:007.90 °C1017.40 hPa93.00 %6.80 °C 
04:45:008.20 °C1017.30 hPa93.00 %7.10 °C 
04:30:008.40 °C1017.50 hPa93.00 %7.30 °C 
04:15:008.40 °C1017.50 hPa93.00 %7.30 °C 
04:00:008.50 °C1017.60 hPa93.00 %7.40 °C 
03:45:008.80 °C1017.50 hPa93.00 %7.70 °C 
03:30:008.90 °C1017.60 hPa93.00 %7.80 °C 
03:15:009.00 °C1017.50 hPa93.00 %7.90 °C 
03:00:009.00 °C1017.40 hPa93.00 %7.90 °C 
02:45:008.90 °C1017.50 hPa93.00 %7.80 °C 
02:30:008.90 °C1017.50 hPa93.00 %7.80 °C 
02:15:008.90 °C1017.40 hPa92.00 %7.70 °C 
02:00:008.80 °C1017.40 hPa92.00 %7.60 °C 
01:45:008.70 °C1017.50 hPa92.00 %7.50 °C 
01:30:008.60 °C1017.60 hPa92.00 %7.40 °C 
01:15:008.40 °C1017.40 hPa92.00 %7.20 °C 
01:00:008.30 °C1017.30 hPa91.00 %6.90 °C 
00:45:008.10 °C1017.40 hPa91.00 %6.70 °C 
00:30:008.30 °C1017.20 hPa91.00 %6.90 °C 
00:15:008.40 °C1017.40 hPa91.00 %7.00 °C 
00:00:008.40 °C1017.30 hPa91.00 %7.00 °C 

Permanenter Link zu dieser Seite: Wetter im Erzgebirge am 19.09.2015
Performance-Info: Die Erstellung der Seite / Statistik(en) / Tabelle(n) erforderte 5 Datenbankserver-Abfrage(n) und dauerte 100 Millisekunden. (Dieser Messwert ist von der Gesamt-Auslastung des Servers abhängig.)
Erzgebirge - Wetter | Erzgebirge - Wetter (Mobilgeräte) | Komplette Klimadatenbank